sensor_id;sensor_type;location;lat;lon;timestamp;P1;durP1;ratioP1;P2;durP2;ratioP2
8458;SDS011;4266;48.816;9.154;2023-04-15T00:02:19;9.90;;;7.03;;
8458;SDS011;4266;48.816;9.154;2023-04-15T00:04:45;7.43;;;6.73;;
8458;SDS011;4266;48.816;9.154;2023-04-15T00:07:10;11.27;;;7.27;;
8458;SDS011;4266;48.816;9.154;2023-04-15T00:09:36;11.30;;;8.57;;
8458;SDS011;4266;48.816;9.154;2023-04-15T00:12:03;11.77;;;7.37;;
8458;SDS011;4266;48.816;9.154;2023-04-15T00:14:29;9.00;;;6.00;;
8458;SDS011;4266;48.816;9.154;2023-04-15T00:16:55;9.63;;;6.07;;
8458;SDS011;4266;48.816;9.154;2023-04-15T00:19:20;9.50;;;6.10;;
8458;SDS011;4266;48.816;9.154;2023-04-15T00:21:46;8.03;;;7.13;;
8458;SDS011;4266;48.816;9.154;2023-04-15T00:24:12;8.97;;;6.10;;
8458;SDS011;4266;48.816;9.154;2023-04-15T00:26:38;10.83;;;7.27;;
8458;SDS011;4266;48.816;9.154;2023-04-15T00:29:03;9.80;;;6.70;;
8458;SDS011;4266;48.816;9.154;2023-04-15T00:31:30;6.57;;;5.93;;
8458;SDS011;4266;48.816;9.154;2023-04-15T00:33:55;9.57;;;6.40;;
8458;SDS011;4266;48.816;9.154;2023-04-15T00:36:21;7.70;;;6.10;;
8458;SDS011;4266;48.816;9.154;2023-04-15T00:38:46;11.13;;;6.87;;
8458;SDS011;4266;48.816;9.154;2023-04-15T00:41:12;13.63;;;6.97;;
8458;SDS011;4266;48.816;9.154;2023-04-15T00:43:38;9.17;;;6.47;;
8458;SDS011;4266;48.816;9.154;2023-04-15T00:46:03;8.77;;;6.57;;
8458;SDS011;4266;48.816;9.154;2023-04-15T00:48:29;8.10;;;6.20;;
8458;SDS011;4266;48.816;9.154;2023-04-15T00:50:56;8.03;;;6.10;;
8458;SDS011;4266;48.816;9.154;2023-04-15T00:53:21;7.83;;;6.80;;
8458;SDS011;4266;48.816;9.154;2023-04-15T00:55:47;8.23;;;6.07;;
8458;SDS011;4266;48.816;9.154;2023-04-15T00:58:13;7.27;;;6.60;;
8458;SDS011;4266;48.816;9.154;2023-04-15T01:00:38;7.43;;;6.70;;
8458;SDS011;4266;48.816;9.154;2023-04-15T01:03:05;8.00;;;6.37;;
8458;SDS011;4266;48.816;9.154;2023-04-15T01:05:31;7.23;;;6.47;;
8458;SDS011;4266;48.816;9.154;2023-04-15T01:07:57;6.90;;;6.20;;
8458;SDS011;4266;48.816;9.154;2023-04-15T01:10:23;7.47;;;6.63;;
8458;SDS011;4266;48.816;9.154;2023-04-15T01:12:49;9.33;;;7.37;;
8458;SDS011;4266;48.816;9.154;2023-04-15T01:15:15;8.17;;;6.97;;
8458;SDS011;4266;48.816;9.154;2023-04-15T01:17:41;8.80;;;6.83;;
8458;SDS011;4266;48.816;9.154;2023-04-15T01:20:07;7.97;;;6.73;;
8458;SDS011;4266;48.816;9.154;2023-04-15T01:22:33;7.43;;;6.20;;
8458;SDS011;4266;48.816;9.154;2023-04-15T01:25:04;8.00;;;6.30;;
8458;SDS011;4266;48.816;9.154;2023-04-15T01:27:26;8.07;;;6.00;;
8458;SDS011;4266;48.816;9.154;2023-04-15T01:29:52;10.40;;;7.23;;
8458;SDS011;4266;48.816;9.154;2023-04-15T01:32:18;8.77;;;6.80;;
8458;SDS011;4266;48.816;9.154;2023-04-15T01:34:43;10.33;;;7.13;;
8458;SDS011;4266;48.816;9.154;2023-04-15T01:37:10;10.30;;;7.33;;
8458;SDS011;4266;48.816;9.154;2023-04-15T01:39:36;7.97;;;7.17;;
8458;SDS011;4266;48.816;9.154;2023-04-15T01:42:02;9.13;;;7.70;;
8458;SDS011;4266;48.816;9.154;2023-04-15T01:44:29;7.63;;;6.57;;
8458;SDS011;4266;48.816;9.154;2023-04-15T01:46:54;9.23;;;6.60;;
8458;SDS011;4266;48.816;9.154;2023-04-15T01:49:20;9.50;;;6.93;;
8458;SDS011;4266;48.816;9.154;2023-04-15T01:51:46;8.07;;;7.27;;
8458;SDS011;4266;48.816;9.154;2023-04-15T01:54:12;7.97;;;7.27;;
8458;SDS011;4266;48.816;9.154;2023-04-15T01:56:38;8.40;;;6.93;;
8458;SDS011;4266;48.816;9.154;2023-04-15T01:59:04;13.10;;;8.23;;
8458;SDS011;4266;48.816;9.154;2023-04-15T02:01:29;11.27;;;7.50;;
8458;SDS011;4266;48.816;9.154;2023-04-15T02:03:55;7.07;;;6.33;;
8458;SDS011;4266;48.816;9.154;2023-04-15T02:06:21;10.50;;;6.60;;
8458;SDS011;4266;48.816;9.154;2023-04-15T02:08:46;11.70;;;6.80;;
8458;SDS011;4266;48.816;9.154;2023-04-15T02:11:12;12.43;;;6.97;;
8458;SDS011;4266;48.816;9.154;2023-04-15T02:13:38;10.00;;;7.17;;
8458;SDS011;4266;48.816;9.154;2023-04-15T02:16:13;10.03;;;7.80;;
8458;SDS011;4266;48.816;9.154;2023-04-15T02:18:32;8.20;;;7.40;;
8458;SDS011;4266;48.816;9.154;2023-04-15T02:20:58;10.03;;;6.50;;
8458;SDS011;4266;48.816;9.154;2023-04-15T02:23:23;11.17;;;7.50;;
8458;SDS011;4266;48.816;9.154;2023-04-15T02:25:49;8.93;;;8.03;;
8458;SDS011;4266;48.816;9.154;2023-04-15T02:28:15;13.93;;;7.10;;
8458;SDS011;4266;48.816;9.154;2023-04-15T02:30:41;8.17;;;7.23;;
8458;SDS011;4266;48.816;9.154;2023-04-15T02:33:07;9.30;;;7.30;;
8458;SDS011;4266;48.816;9.154;2023-04-15T02:35:33;12.03;;;7.17;;
8458;SDS011;4266;48.816;9.154;2023-04-15T02:38:00;7.87;;;6.93;;
8458;SDS011;4266;48.816;9.154;2023-04-15T02:40:26;8.67;;;6.57;;
8458;SDS011;4266;48.816;9.154;2023-04-15T02:42:52;10.20;;;7.17;;
8458;SDS011;4266;48.816;9.154;2023-04-15T02:45:18;10.03;;;7.30;;
8458;SDS011;4266;48.816;9.154;2023-04-15T02:47:45;10.57;;;8.00;;
8458;SDS011;4266;48.816;9.154;2023-04-15T02:50:11;11.40;;;7.63;;
8458;SDS011;4266;48.816;9.154;2023-04-15T02:52:38;8.47;;;7.67;;
8458;SDS011;4266;48.816;9.154;2023-04-15T02:55:04;9.33;;;7.30;;
8458;SDS011;4266;48.816;9.154;2023-04-15T02:57:32;7.90;;;7.07;;
8458;SDS011;4266;48.816;9.154;2023-04-15T02:59:59;8.30;;;7.00;;
8458;SDS011;4266;48.816;9.154;2023-04-15T03:02:24;11.30;;;7.20;;
8458;SDS011;4266;48.816;9.154;2023-04-15T03:04:51;10.20;;;6.53;;
8458;SDS011;4266;48.816;9.154;2023-04-15T03:07:17;11.03;;;7.53;;
8458;SDS011;4266;48.816;9.154;2023-04-15T03:09:43;10.60;;;7.33;;
8458;SDS011;4266;48.816;9.154;2023-04-15T03:12:08;8.50;;;7.73;;
8458;SDS011;4266;48.816;9.154;2023-04-15T03:14:35;13.13;;;7.80;;
8458;SDS011;4266;48.816;9.154;2023-04-15T03:17:01;9.60;;;7.67;;
8458;SDS011;4266;48.816;9.154;2023-04-15T03:19:27;7.93;;;7.10;;
8458;SDS011;4266;48.816;9.154;2023-04-15T03:21:53;10.57;;;6.70;;
8458;SDS011;4266;48.816;9.154;2023-04-15T03:24:19;10.03;;;6.73;;
8458;SDS011;4266;48.816;9.154;2023-04-15T03:26:44;12.87;;;7.50;;
8458;SDS011;4266;48.816;9.154;2023-04-15T03:29:11;11.60;;;7.00;;
8458;SDS011;4266;48.816;9.154;2023-04-15T03:31:37;7.90;;;7.10;;
8458;SDS011;4266;48.816;9.154;2023-04-15T03:34:03;11.33;;;6.57;;
8458;SDS011;4266;48.816;9.154;2023-04-15T03:36:29;8.27;;;6.53;;
8458;SDS011;4266;48.816;9.154;2023-04-15T03:38:55;11.27;;;6.93;;
8458;SDS011;4266;48.816;9.154;2023-04-15T03:41:21;10.57;;;7.90;;
8458;SDS011;4266;48.816;9.154;2023-04-15T03:43:46;10.87;;;7.63;;
8458;SDS011;4266;48.816;9.154;2023-04-15T03:46:12;10.47;;;8.53;;
8458;SDS011;4266;48.816;9.154;2023-04-15T03:48:38;8.17;;;7.43;;
8458;SDS011;4266;48.816;9.154;2023-04-15T03:51:04;10.07;;;7.13;;
8458;SDS011;4266;48.816;9.154;2023-04-15T03:53:29;11.53;;;7.87;;
8458;SDS011;4266;48.816;9.154;2023-04-15T03:55:56;7.87;;;7.03;;
8458;SDS011;4266;48.816;9.154;2023-04-15T03:58:22;9.90;;;6.47;;
8458;SDS011;4266;48.816;9.154;2023-04-15T04:00:47;9.17;;;7.40;;
8458;SDS011;4266;48.816;9.154;2023-04-15T04:03:23;13.63;;;9.40;;
8458;SDS011;4266;48.816;9.154;2023-04-15T04:05:52;9.33;;;7.47;;
8458;SDS011;4266;48.816;9.154;2023-04-15T04:08:17;9.27;;;6.87;;
8458;SDS011;4266;48.816;9.154;2023-04-15T04:10:43;13.83;;;8.53;;
8458;SDS011;4266;48.816;9.154;2023-04-15T04:13:09;14.17;;;9.07;;
8458;SDS011;4266;48.816;9.154;2023-04-15T04:15:35;11.60;;;8.73;;
8458;SDS011;4266;48.816;9.154;2023-04-15T04:18:01;11.97;;;7.97;;
8458;SDS011;4266;48.816;9.154;2023-04-15T04:20:26;12.33;;;7.20;;
8458;SDS011;4266;48.816;9.154;2023-04-15T04:22:53;11.50;;;8.83;;
8458;SDS011;4266;48.816;9.154;2023-04-15T04:25:19;13.20;;;8.27;;
8458;SDS011;4266;48.816;9.154;2023-04-15T04:27:45;11.27;;;9.27;;
8458;SDS011;4266;48.816;9.154;2023-04-15T04:30:12;13.37;;;9.13;;
8458;SDS011;4266;48.816;9.154;2023-04-15T04:32:38;12.27;;;11.07;;
8458;SDS011;4266;48.816;9.154;2023-04-15T04:35:04;9.60;;;8.43;;
8458;SDS011;4266;48.816;9.154;2023-04-15T04:37:30;13.60;;;10.83;;
8458;SDS011;4266;48.816;9.154;2023-04-15T04:39:56;14.80;;;9.80;;
8458;SDS011;4266;48.816;9.154;2023-04-15T04:42:22;10.23;;;8.93;;
8458;SDS011;4266;48.816;9.154;2023-04-15T04:44:49;12.60;;;8.90;;
8458;SDS011;4266;48.816;9.154;2023-04-15T04:47:14;9.30;;;8.07;;
8458;SDS011;4266;48.816;9.154;2023-04-15T04:49:40;9.70;;;8.17;;
8458;SDS011;4266;48.816;9.154;2023-04-15T04:52:06;12.13;;;8.23;;
8458;SDS011;4266;48.816;9.154;2023-04-15T04:54:32;9.83;;;6.67;;
8458;SDS011;4266;48.816;9.154;2023-04-15T04:56:57;14.27;;;9.40;;
8458;SDS011;4266;48.816;9.154;2023-04-15T04:59:23;15.03;;;8.83;;
8458;SDS011;4266;48.816;9.154;2023-04-15T05:01:49;10.63;;;9.53;;
8458;SDS011;4266;48.816;9.154;2023-04-15T05:04:14;15.77;;;8.30;;
8458;SDS011;4266;48.816;9.154;2023-04-15T05:06:40;12.77;;;9.30;;
8458;SDS011;4266;48.816;9.154;2023-04-15T05:09:06;15.17;;;8.37;;
8458;SDS011;4266;48.816;9.154;2023-04-15T05:11:32;7.37;;;6.67;;
8458;SDS011;4266;48.816;9.154;2023-04-15T05:13:57;8.97;;;7.50;;
8458;SDS011;4266;48.816;9.154;2023-04-15T05:16:23;8.97;;;7.77;;
8458;SDS011;4266;48.816;9.154;2023-04-15T05:18:49;10.43;;;8.13;;
8458;SDS011;4266;48.816;9.154;2023-04-15T05:21:14;11.00;;;8.27;;
8458;SDS011;4266;48.816;9.154;2023-04-15T05:23:40;9.33;;;8.43;;
8458;SDS011;4266;48.816;9.154;2023-04-15T05:26:07;9.87;;;8.70;;
8458;SDS011;4266;48.816;9.154;2023-04-15T05:28:33;12.30;;;9.60;;
8458;SDS011;4266;48.816;9.154;2023-04-15T05:31:00;11.17;;;9.87;;
8458;SDS011;4266;48.816;9.154;2023-04-15T05:33:25;10.23;;;8.47;;
8458;SDS011;4266;48.816;9.154;2023-04-15T05:35:51;8.80;;;7.47;;
8458;SDS011;4266;48.816;9.154;2023-04-15T05:38:17;11.57;;;9.10;;
8458;SDS011;4266;48.816;9.154;2023-04-15T05:40:43;8.47;;;7.53;;
8458;SDS011;4266;48.816;9.154;2023-04-15T05:43:09;9.73;;;7.93;;
8458;SDS011;4266;48.816;9.154;2023-04-15T05:45:34;10.30;;;7.70;;
8458;SDS011;4266;48.816;9.154;2023-04-15T05:48:01;8.57;;;7.23;;
8458;SDS011;4266;48.816;9.154;2023-04-15T05:50:27;7.80;;;7.00;;
8458;SDS011;4266;48.816;9.154;2023-04-15T05:52:53;8.00;;;6.50;;
8458;SDS011;4266;48.816;9.154;2023-04-15T05:55:19;9.77;;;7.20;;
8458;SDS011;4266;48.816;9.154;2023-04-15T05:57:45;9.13;;;7.47;;
8458;SDS011;4266;48.816;9.154;2023-04-15T06:00:12;9.90;;;6.90;;
8458;SDS011;4266;48.816;9.154;2023-04-15T06:02:39;7.77;;;6.97;;
8458;SDS011;4266;48.816;9.154;2023-04-15T06:05:04;8.13;;;6.87;;
8458;SDS011;4266;48.816;9.154;2023-04-15T06:07:34;10.37;;;6.53;;
8458;SDS011;4266;48.816;9.154;2023-04-15T06:10:00;9.83;;;6.07;;
8458;SDS011;4266;48.816;9.154;2023-04-15T06:12:26;8.53;;;6.80;;
8458;SDS011;4266;48.816;9.154;2023-04-15T06:14:52;10.00;;;7.13;;
8458;SDS011;4266;48.816;9.154;2023-04-15T06:17:18;11.27;;;6.63;;
8458;SDS011;4266;48.816;9.154;2023-04-15T06:19:44;7.63;;;6.93;;
8458;SDS011;4266;48.816;9.154;2023-04-15T06:22:11;7.37;;;6.67;;
8458;SDS011;4266;48.816;9.154;2023-04-15T06:24:36;7.63;;;6.27;;
8458;SDS011;4266;48.816;9.154;2023-04-15T06:27:02;8.77;;;6.37;;
8458;SDS011;4266;48.816;9.154;2023-04-15T06:29:28;12.93;;;8.23;;
8458;SDS011;4266;48.816;9.154;2023-04-15T06:31:54;10.07;;;7.67;;
8458;SDS011;4266;48.816;9.154;2023-04-15T06:34:19;12.70;;;7.87;;
8458;SDS011;4266;48.816;9.154;2023-04-15T06:36:45;13.80;;;7.93;;
8458;SDS011;4266;48.816;9.154;2023-04-15T06:39:11;8.80;;;7.90;;
8458;SDS011;4266;48.816;9.154;2023-04-15T06:41:36;11.13;;;8.23;;
8458;SDS011;4266;48.816;9.154;2023-04-15T06:44:02;9.97;;;8.03;;
8458;SDS011;4266;48.816;9.154;2023-04-15T06:46:29;13.70;;;7.50;;
8458;SDS011;4266;48.816;9.154;2023-04-15T06:48:55;11.17;;;7.97;;
8458;SDS011;4266;48.816;9.154;2023-04-15T06:51:21;12.10;;;8.30;;
8458;SDS011;4266;48.816;9.154;2023-04-15T06:53:47;14.80;;;8.23;;
8458;SDS011;4266;48.816;9.154;2023-04-15T06:56:13;11.90;;;8.53;;
8458;SDS011;4266;48.816;9.154;2023-04-15T06:58:40;8.40;;;7.33;;
8458;SDS011;4266;48.816;9.154;2023-04-15T07:01:05;8.83;;;7.03;;
8458;SDS011;4266;48.816;9.154;2023-04-15T07:03:32;9.40;;;7.10;;
8458;SDS011;4266;48.816;9.154;2023-04-15T07:05:58;12.17;;;7.20;;
8458;SDS011;4266;48.816;9.154;2023-04-15T07:08:26;10.10;;;7.03;;
8458;SDS011;4266;48.816;9.154;2023-04-15T07:10:51;10.30;;;6.97;;
8458;SDS011;4266;48.816;9.154;2023-04-15T07:13:17;8.87;;;7.13;;
8458;SDS011;4266;48.816;9.154;2023-04-15T07:15:43;8.55;;;6.97;;
8458;SDS011;4266;48.816;9.154;2023-04-15T07:18:09;9.77;;;7.50;;
8458;SDS011;4266;48.816;9.154;2023-04-15T07:20:36;8.57;;;6.87;;
8458;SDS011;4266;48.816;9.154;2023-04-15T07:23:01;9.32;;;6.97;;
8458;SDS011;4266;48.816;9.154;2023-04-15T07:25:27;8.00;;;6.25;;
8458;SDS011;4266;48.816;9.154;2023-04-15T07:27:57;12.45;;;6.22;;
8458;SDS011;4266;48.816;9.154;2023-04-15T07:30:23;7.80;;;6.45;;
8458;SDS011;4266;48.816;9.154;2023-04-15T07:32:48;7.28;;;6.45;;
8458;SDS011;4266;48.816;9.154;2023-04-15T07:35:16;17.73;;;7.15;;
8458;SDS011;4266;48.816;9.154;2023-04-15T07:37:43;8.95;;;6.37;;
8458;SDS011;4266;48.816;9.154;2023-04-15T07:40:12;12.65;;;6.75;;
8458;SDS011;4266;48.816;9.154;2023-04-15T07:42:38;7.93;;;6.70;;
8458;SDS011;4266;48.816;9.154;2023-04-15T07:45:05;9.27;;;6.57;;
8458;SDS011;4266;48.816;9.154;2023-04-15T07:47:32;12.03;;;6.80;;
8458;SDS011;4266;48.816;9.154;2023-04-15T07:49:58;9.90;;;6.60;;
8458;SDS011;4266;48.816;9.154;2023-04-15T07:52:23;12.53;;;6.73;;
8458;SDS011;4266;48.816;9.154;2023-04-15T07:54:50;6.85;;;5.87;;
8458;SDS011;4266;48.816;9.154;2023-04-15T07:57:15;9.48;;;6.28;;
8458;SDS011;4266;48.816;9.154;2023-04-15T07:59:41;7.15;;;6.45;;
8458;SDS011;4266;48.816;9.154;2023-04-15T08:02:08;10.45;;;6.35;;
8458;SDS011;4266;48.816;9.154;2023-04-15T08:04:34;10.10;;;6.60;;
8458;SDS011;4266;48.816;9.154;2023-04-15T08:07:02;8.30;;;5.82;;
8458;SDS011;4266;48.816;9.154;2023-04-15T08:09:28;11.35;;;6.22;;
8458;SDS011;4266;48.816;9.154;2023-04-15T08:11:54;9.27;;;6.00;;
8458;SDS011;4266;48.816;9.154;2023-04-15T08:14:20;7.18;;;4.97;;
8458;SDS011;4266;48.816;9.154;2023-04-15T08:16:46;11.70;;;5.87;;
8458;SDS011;4266;48.816;9.154;2023-04-15T08:19:12;8.57;;;5.03;;
8458;SDS011;4266;48.816;9.154;2023-04-15T08:21:37;5.62;;;4.03;;
8458;SDS011;4266;48.816;9.154;2023-04-15T08:24:03;6.43;;;4.28;;
8458;SDS011;4266;48.816;9.154;2023-04-15T08:26:31;7.03;;;4.20;;
8458;SDS011;4266;48.816;9.154;2023-04-15T08:28:58;9.30;;;4.00;;
8458;SDS011;4266;48.816;9.154;2023-04-15T08:31:25;5.20;;;3.53;;
8458;SDS011;4266;48.816;9.154;2023-04-15T08:33:50;5.90;;;4.07;;
8458;SDS011;4266;48.816;9.154;2023-04-15T08:36:16;6.75;;;3.95;;
8458;SDS011;4266;48.816;9.154;2023-04-15T08:38:43;5.18;;;3.72;;
8458;SDS011;4266;48.816;9.154;2023-04-15T08:41:11;8.27;;;3.75;;
8458;SDS011;4266;48.816;9.154;2023-04-15T08:43:38;11.27;;;3.90;;
8458;SDS011;4266;48.816;9.154;2023-04-15T08:46:03;4.12;;;3.62;;
8458;SDS011;4266;48.816;9.154;2023-04-15T08:48:31;5.60;;;3.80;;
8458;SDS011;4266;48.816;9.154;2023-04-15T08:50:56;11.07;;;4.50;;
8458;SDS011;4266;48.816;9.154;2023-04-15T08:53:23;7.55;;;5.12;;
8458;SDS011;4266;48.816;9.154;2023-04-15T08:55:51;8.43;;;4.87;;
8458;SDS011;4266;48.816;9.154;2023-04-15T08:58:16;8.10;;;4.30;;
8458;SDS011;4266;48.816;9.154;2023-04-15T09:00:51;5.10;;;4.60;;
8458;SDS011;4266;48.816;9.154;2023-04-15T09:03:17;6.55;;;3.90;;
8458;SDS011;4266;48.816;9.154;2023-04-15T09:05:43;4.18;;;3.50;;
8458;SDS011;4266;48.816;9.154;2023-04-15T09:08:09;4.68;;;3.28;;
8458;SDS011;4266;48.816;9.154;2023-04-15T09:10:35;4.40;;;3.28;;
8458;SDS011;4266;48.816;9.154;2023-04-15T09:13:01;4.15;;;3.03;;
8458;SDS011;4266;48.816;9.154;2023-04-15T09:15:27;5.10;;;3.10;;
8458;SDS011;4266;48.816;9.154;2023-04-15T09:17:55;6.95;;;3.40;;
8458;SDS011;4266;48.816;9.154;2023-04-15T09:20:22;3.58;;;2.70;;
8458;SDS011;4266;48.816;9.154;2023-04-15T09:22:51;7.87;;;3.10;;
8458;SDS011;4266;48.816;9.154;2023-04-15T09:25:25;2.47;;;2.28;;
8458;SDS011;4266;48.816;9.154;2023-04-15T09:27:51;3.67;;;2.30;;
8458;SDS011;4266;48.816;9.154;2023-04-15T09:30:16;3.95;;;2.58;;
8458;SDS011;4266;48.816;9.154;2023-04-15T09:32:48;3.22;;;2.60;;
8458;SDS011;4266;48.816;9.154;2023-04-15T09:35:17;3.05;;;2.70;;
8458;SDS011;4266;48.816;9.154;2023-04-15T09:37:42;3.08;;;2.50;;
8458;SDS011;4266;48.816;9.154;2023-04-15T09:40:08;2.55;;;2.35;;
8458;SDS011;4266;48.816;9.154;2023-04-15T09:42:35;4.82;;;2.90;;
8458;SDS011;4266;48.816;9.154;2023-04-15T09:45:07;2.95;;;2.65;;
8458;SDS011;4266;48.816;9.154;2023-04-15T09:47:33;3.97;;;3.17;;
8458;SDS011;4266;48.816;9.154;2023-04-15T09:49:59;3.70;;;2.72;;
8458;SDS011;4266;48.816;9.154;2023-04-15T09:52:24;3.75;;;3.15;;
8458;SDS011;4266;48.816;9.154;2023-04-15T09:54:52;3.78;;;3.00;;
8458;SDS011;4266;48.816;9.154;2023-04-15T09:57:20;3.53;;;3.25;;
8458;SDS011;4266;48.816;9.154;2023-04-15T09:59:46;5.80;;;2.92;;
8458;SDS011;4266;48.816;9.154;2023-04-15T10:02:12;3.65;;;3.35;;
8458;SDS011;4266;48.816;9.154;2023-04-15T10:04:39;4.18;;;3.65;;
8458;SDS011;4266;48.816;9.154;2023-04-15T10:07:04;6.03;;;4.32;;
8458;SDS011;4266;48.816;9.154;2023-04-15T10:09:30;5.12;;;4.32;;
8458;SDS011;4266;48.816;9.154;2023-04-15T10:11:59;5.30;;;3.72;;
8458;SDS011;4266;48.816;9.154;2023-04-15T10:14:25;3.65;;;3.20;;
8458;SDS011;4266;48.816;9.154;2023-04-15T10:16:51;5.35;;;3.62;;
8458;SDS011;4266;48.816;9.154;2023-04-15T10:19:17;6.90;;;4.20;;
8458;SDS011;4266;48.816;9.154;2023-04-15T10:21:43;6.78;;;4.03;;
8458;SDS011;4266;48.816;9.154;2023-04-15T10:26:47;5.80;;;4.22;;
8458;SDS011;4266;48.816;9.154;2023-04-15T10:32:07;4.12;;;3.78;;
8458;SDS011;4266;48.816;9.154;2023-04-15T10:34:33;8.32;;;5.28;;
8458;SDS011;4266;48.816;9.154;2023-04-15T10:37:00;6.10;;;4.00;;
8458;SDS011;4266;48.816;9.154;2023-04-15T10:39:39;6.43;;;4.68;;
8458;SDS011;4266;48.816;9.154;2023-04-15T10:44:48;4.70;;;4.00;;
8458;SDS011;4266;48.816;9.154;2023-04-15T10:47:15;7.20;;;3.80;;
8458;SDS011;4266;48.816;9.154;2023-04-15T10:49:44;5.00;;;4.50;;
8458;SDS011;4266;48.816;9.154;2023-04-15T10:52:09;12.57;;;3.65;;
8458;SDS011;4266;48.816;9.154;2023-04-15T10:54:36;4.90;;;3.72;;
8458;SDS011;4266;48.816;9.154;2023-04-15T11:02:37;5.40;;;3.75;;
8458;SDS011;4266;48.816;9.154;2023-04-15T11:05:01;4.68;;;3.55;;
8458;SDS011;4266;48.816;9.154;2023-04-15T11:13:15;8.02;;;4.65;;
8458;SDS011;4266;48.816;9.154;2023-04-15T11:15:40;5.50;;;3.85;;
8458;SDS011;4266;48.816;9.154;2023-04-15T11:18:10;5.87;;;4.12;;
8458;SDS011;4266;48.816;9.154;2023-04-15T11:20:37;5.00;;;2.95;;
8458;SDS011;4266;48.816;9.154;2023-04-15T11:23:03;9.50;;;3.50;;
8458;SDS011;4266;48.816;9.154;2023-04-15T11:25:29;6.12;;;4.00;;
8458;SDS011;4266;48.816;9.154;2023-04-15T11:27:54;5.35;;;3.53;;
8458;SDS011;4266;48.816;9.154;2023-04-15T11:30:21;4.05;;;3.60;;
8458;SDS011;4266;48.816;9.154;2023-04-15T11:32:48;3.53;;;3.08;;
8458;SDS011;4266;48.816;9.154;2023-04-15T11:35:15;5.10;;;3.50;;
8458;SDS011;4266;48.816;9.154;2023-04-15T11:37:43;5.62;;;4.05;;
8458;SDS011;4266;48.816;9.154;2023-04-15T11:40:09;5.45;;;3.33;;
8458;SDS011;4266;48.816;9.154;2023-04-15T11:42:35;6.07;;;4.03;;
8458;SDS011;4266;48.816;9.154;2023-04-15T11:45:07;5.43;;;3.90;;
8458;SDS011;4266;48.816;9.154;2023-04-15T11:47:31;5.47;;;3.72;;
8458;SDS011;4266;48.816;9.154;2023-04-15T11:50:12;10.80;;;3.87;;
8458;SDS011;4266;48.816;9.154;2023-04-15T11:52:24;5.32;;;4.12;;
8458;SDS011;4266;48.816;9.154;2023-04-15T11:54:50;5.43;;;3.55;;
8458;SDS011;4266;48.816;9.154;2023-04-15T11:57:16;4.10;;;3.80;;
8458;SDS011;4266;48.816;9.154;2023-04-15T11:59:42;5.22;;;3.92;;
8458;SDS011;4266;48.816;9.154;2023-04-15T12:02:11;5.43;;;4.40;;
8458;SDS011;4266;48.816;9.154;2023-04-15T12:04:36;5.90;;;4.05;;
8458;SDS011;4266;48.816;9.154;2023-04-15T12:07:04;5.07;;;4.05;;
8458;SDS011;4266;48.816;9.154;2023-04-15T12:09:29;4.85;;;3.95;;
8458;SDS011;4266;48.816;9.154;2023-04-15T12:11:57;5.37;;;4.30;;
8458;SDS011;4266;48.816;9.154;2023-04-15T12:14:24;5.40;;;4.50;;
8458;SDS011;4266;48.816;9.154;2023-04-15T12:16:51;6.55;;;3.97;;
8458;SDS011;4266;48.816;9.154;2023-04-15T12:19:18;8.68;;;4.50;;
8458;SDS011;4266;48.816;9.154;2023-04-15T12:21:44;5.45;;;4.62;;
8458;SDS011;4266;48.816;9.154;2023-04-15T12:24:10;4.03;;;3.65;;
8458;SDS011;4266;48.816;9.154;2023-04-15T12:26:41;4.28;;;3.80;;
8458;SDS011;4266;48.816;9.154;2023-04-15T12:29:04;5.53;;;4.45;;
8458;SDS011;4266;48.816;9.154;2023-04-15T12:31:30;4.82;;;4.15;;
8458;SDS011;4266;48.816;9.154;2023-04-15T12:33:57;5.78;;;4.40;;
8458;SDS011;4266;48.816;9.154;2023-04-15T12:36:23;6.07;;;4.55;;
8458;SDS011;4266;48.816;9.154;2023-04-15T12:38:49;4.93;;;4.50;;
8458;SDS011;4266;48.816;9.154;2023-04-15T12:41:15;5.73;;;4.63;;
8458;SDS011;4266;48.816;9.154;2023-04-15T12:43:43;4.57;;;4.13;;
8458;SDS011;4266;48.816;9.154;2023-04-15T12:46:06;4.43;;;3.83;;
8458;SDS011;4266;48.816;9.154;2023-04-15T12:48:32;4.33;;;4.00;;
8458;SDS011;4266;48.816;9.154;2023-04-15T12:50:58;4.00;;;3.70;;
8458;SDS011;4266;48.816;9.154;2023-04-15T12:53:23;4.87;;;4.47;;
8458;SDS011;4266;48.816;9.154;2023-04-15T12:55:49;5.20;;;4.60;;
8458;SDS011;4266;48.816;9.154;2023-04-15T12:58:15;4.80;;;4.40;;
8458;SDS011;4266;48.816;9.154;2023-04-15T13:00:43;4.90;;;4.40;;
8458;SDS011;4266;48.816;9.154;2023-04-15T13:03:10;5.20;;;4.40;;
8458;SDS011;4266;48.816;9.154;2023-04-15T13:05:36;4.67;;;4.13;;
8458;SDS011;4266;48.816;9.154;2023-04-15T13:08:01;5.30;;;4.80;;
8458;SDS011;4266;48.816;9.154;2023-04-15T13:10:27;5.60;;;4.03;;
8458;SDS011;4266;48.816;9.154;2023-04-15T13:12:53;13.37;;;8.50;;
8458;SDS011;4266;48.816;9.154;2023-04-15T13:15:19;4.53;;;3.97;;
8458;SDS011;4266;48.816;9.154;2023-04-15T13:17:45;4.50;;;4.10;;
8458;SDS011;4266;48.816;9.154;2023-04-15T13:20:11;4.10;;;3.50;;
8458;SDS011;4266;48.816;9.154;2023-04-15T13:22:38;6.33;;;3.67;;
8458;SDS011;4266;48.816;9.154;2023-04-15T13:25:04;5.40;;;3.60;;
8458;SDS011;4266;48.816;9.154;2023-04-15T13:27:31;4.80;;;4.30;;
8458;SDS011;4266;48.816;9.154;2023-04-15T13:29:57;3.73;;;3.03;;
8458;SDS011;4266;48.816;9.154;2023-04-15T13:32:23;2.77;;;2.50;;
8458;SDS011;4266;48.816;9.154;2023-04-15T13:34:49;3.20;;;2.90;;
8458;SDS011;4266;48.816;9.154;2023-04-15T13:37:16;2.73;;;2.53;;
8458;SDS011;4266;48.816;9.154;2023-04-15T13:39:41;3.90;;;3.10;;
8458;SDS011;4266;48.816;9.154;2023-04-15T13:42:08;4.20;;;2.50;;
8458;SDS011;4266;48.816;9.154;2023-04-15T13:44:35;3.43;;;3.00;;
8458;SDS011;4266;48.816;9.154;2023-04-15T13:47:03;4.70;;;2.87;;
8458;SDS011;4266;48.816;9.154;2023-04-15T13:49:28;3.83;;;2.40;;
8458;SDS011;4266;48.816;9.154;2023-04-15T13:51:54;2.93;;;2.63;;
8458;SDS011;4266;48.816;9.154;2023-04-15T13:54:20;3.80;;;3.40;;
8458;SDS011;4266;48.816;9.154;2023-04-15T13:56:46;3.40;;;3.10;;
8458;SDS011;4266;48.816;9.154;2023-04-15T13:59:12;3.03;;;2.70;;
8458;SDS011;4266;48.816;9.154;2023-04-15T14:01:38;4.23;;;2.97;;
8458;SDS011;4266;48.816;9.154;2023-04-15T14:04:04;6.27;;;2.63;;
8458;SDS011;4266;48.816;9.154;2023-04-15T14:06:30;3.17;;;2.60;;
8458;SDS011;4266;48.816;9.154;2023-04-15T14:08:56;4.30;;;2.47;;
8458;SDS011;4266;48.816;9.154;2023-04-15T14:11:21;2.47;;;2.20;;
8458;SDS011;4266;48.816;9.154;2023-04-15T14:13:47;2.60;;;2.40;;
8458;SDS011;4266;48.816;9.154;2023-04-15T14:16:14;7.47;;;2.60;;
8458;SDS011;4266;48.816;9.154;2023-04-15T14:18:39;8.40;;;2.53;;
8458;SDS011;4266;48.816;9.154;2023-04-15T14:21:05;3.23;;;2.50;;
8458;SDS011;4266;48.816;9.154;2023-04-15T14:23:31;3.63;;;2.87;;
8458;SDS011;4266;48.816;9.154;2023-04-15T14:25:56;2.87;;;2.63;;
8458;SDS011;4266;48.816;9.154;2023-04-15T14:28:23;4.77;;;3.80;;
8458;SDS011;4266;48.816;9.154;2023-04-15T14:30:49;3.10;;;2.80;;
8458;SDS011;4266;48.816;9.154;2023-04-15T14:33:15;4.03;;;2.83;;
8458;SDS011;4266;48.816;9.154;2023-04-15T14:35:45;2.90;;;2.70;;
8458;SDS011;4266;48.816;9.154;2023-04-15T14:38:10;4.60;;;2.90;;
8458;SDS011;4266;48.816;9.154;2023-04-15T14:40:37;3.23;;;2.93;;
8458;SDS011;4266;48.816;9.154;2023-04-15T14:43:03;3.10;;;2.47;;
8458;SDS011;4266;48.816;9.154;2023-04-15T14:45:29;6.37;;;2.67;;
8458;SDS011;4266;48.816;9.154;2023-04-15T14:47:55;2.70;;;2.50;;
8458;SDS011;4266;48.816;9.154;2023-04-15T14:50:20;2.63;;;2.43;;
8458;SDS011;4266;48.816;9.154;2023-04-15T14:52:46;3.30;;;3.00;;
8458;SDS011;4266;48.816;9.154;2023-04-15T14:55:12;3.03;;;2.83;;
8458;SDS011;4266;48.816;9.154;2023-04-15T14:57:39;3.33;;;3.10;;
8458;SDS011;4266;48.816;9.154;2023-04-15T15:00:05;5.23;;;3.23;;
8458;SDS011;4266;48.816;9.154;2023-04-15T15:02:32;3.53;;;3.23;;
8458;SDS011;4266;48.816;9.154;2023-04-15T15:04:57;4.20;;;3.80;;
8458;SDS011;4266;48.816;9.154;2023-04-15T15:07:23;3.93;;;3.57;;
8458;SDS011;4266;48.816;9.154;2023-04-15T15:09:48;4.63;;;4.23;;
8458;SDS011;4266;48.816;9.154;2023-04-15T15:12:16;3.40;;;3.10;;
8458;SDS011;4266;48.816;9.154;2023-04-15T15:14:42;4.20;;;3.90;;
8458;SDS011;4266;48.816;9.154;2023-04-15T15:17:08;3.63;;;2.97;;
8458;SDS011;4266;48.816;9.154;2023-04-15T15:19:34;6.73;;;3.77;;
8458;SDS011;4266;48.816;9.154;2023-04-15T15:22:01;3.50;;;3.20;;
8458;SDS011;4266;48.816;9.154;2023-04-15T15:24:26;5.27;;;3.33;;
8458;SDS011;4266;48.816;9.154;2023-04-15T15:26:52;4.53;;;3.30;;